createdAt,value
2019-05-18T00:01:00.609Z,16.93
2019-05-18T00:03:30.246Z,16.86
2019-05-18T00:05:59.961Z,16.82
2019-05-18T00:08:29.399Z,16.79
2019-05-18T00:10:58.829Z,16.77
2019-05-18T00:13:28.550Z,16.77
2019-05-18T00:15:58.323Z,16.70
2019-05-18T00:18:28.131Z,16.53
2019-05-18T00:20:57.947Z,16.52
2019-05-18T00:23:27.729Z,16.38
2019-05-18T00:25:57.266Z,16.31
2019-05-18T00:28:26.963Z,16.28
2019-05-18T00:30:56.397Z,16.25
2019-05-18T00:33:26.247Z,16.19
2019-05-18T00:35:56.055Z,16.23
2019-05-18T00:38:25.696Z,16.20
2019-05-18T00:40:55.208Z,16.13
2019-05-18T00:43:24.650Z,15.95
2019-05-18T00:45:54.217Z,15.91
2019-05-18T00:48:24.027Z,15.78
2019-05-18T00:50:53.535Z,15.74
2019-05-18T00:53:23.324Z,15.70
2019-05-18T00:55:53.111Z,15.64
2019-05-18T00:58:22.981Z,15.62
2019-05-18T01:00:52.785Z,15.59
2019-05-18T01:03:22.217Z,15.62
2019-05-18T01:05:51.743Z,15.63
2019-05-18T01:08:21.661Z,15.72
2019-05-18T01:10:51.258Z,15.56
2019-05-18T01:13:20.701Z,15.63
2019-05-18T01:15:50.414Z,15.64
2019-05-18T01:18:20.219Z,15.66
2019-05-18T01:20:51.146Z,15.67
2019-05-18T01:23:20.934Z,15.69
2019-05-18T01:25:50.788Z,15.71
2019-05-18T01:28:20.485Z,15.74
2019-05-18T01:30:50.352Z,15.65
2019-05-18T01:33:20.183Z,15.60
2019-05-18T01:35:49.753Z,15.71
2019-05-18T01:38:19.538Z,15.64
2019-05-18T01:40:49.360Z,15.70
2019-05-18T01:43:19.224Z,15.78
2019-05-18T01:45:48.734Z,15.81
2019-05-18T01:48:18.468Z,15.75
2019-05-18T01:50:47.898Z,15.75
2019-05-18T01:53:17.737Z,15.72
2019-05-18T01:55:47.511Z,15.68
2019-05-18T01:58:17.210Z,15.60
2019-05-18T02:00:46.983Z,15.44
2019-05-18T02:03:16.742Z,15.48
2019-05-18T02:05:46.440Z,15.35
2019-05-18T02:08:16.240Z,15.27
2019-05-18T02:10:46.013Z,15.45
2019-05-18T02:13:15.832Z,15.35
2019-05-18T02:15:45.583Z,15.27
2019-05-18T02:18:28.266Z,15.11
2019-05-18T02:20:46.533Z,15.14
2019-05-18T02:23:16.336Z,15.13
2019-05-18T02:25:46.149Z,15.07
2019-05-18T02:28:15.856Z,14.94
2019-05-18T02:30:45.599Z,14.87
2019-05-18T02:33:15.481Z,14.81
2019-05-18T02:35:45.322Z,14.74
2019-05-18T02:38:18.065Z,14.65
2019-05-18T02:40:48.434Z,14.55
2019-05-18T02:43:18.209Z,14.60
2019-05-18T02:45:47.731Z,14.75
2019-05-18T02:48:17.443Z,14.77
2019-05-18T02:50:47.344Z,14.76
2019-05-18T02:53:17.151Z,14.78
2019-05-18T02:55:46.892Z,14.73
2019-05-18T02:58:16.738Z,14.71
2019-05-18T03:00:46.255Z,14.64
2019-05-18T03:03:15.876Z,14.73
2019-05-18T03:05:45.809Z,14.81
2019-05-18T03:08:15.526Z,14.84
2019-05-18T03:10:45.573Z,14.88
2019-05-18T03:13:15.749Z,14.86
2019-05-18T03:15:45.461Z,14.88
2019-05-18T03:18:15.171Z,14.99
2019-05-18T03:20:45.032Z,15.04
2019-05-18T03:23:14.914Z,15.02
2019-05-18T03:25:44.697Z,15.04
2019-05-18T03:28:14.497Z,15.05
2019-05-18T03:30:44.519Z,15.04
2019-05-18T03:33:14.407Z,15.00
2019-05-18T03:35:44.344Z,14.99
2019-05-18T03:38:14.157Z,15.05
2019-05-18T03:40:43.675Z,15.14
2019-05-18T03:43:13.513Z,15.12
2019-05-18T03:45:43.289Z,15.22
2019-05-18T03:48:12.999Z,15.19
2019-05-18T03:50:42.943Z,15.14
2019-05-18T03:53:12.739Z,15.12
2019-05-18T03:55:42.494Z,15.15
2019-05-18T03:58:12.378Z,15.15
2019-05-18T04:00:41.880Z,15.22
2019-05-18T04:03:11.562Z,15.28
2019-05-18T04:05:41.443Z,15.35
2019-05-18T04:08:11.303Z,15.43
2019-05-18T04:10:41.112Z,15.49
2019-05-18T04:13:10.679Z,15.57
2019-05-18T04:15:40.446Z,15.66
2019-05-18T04:18:10.302Z,15.76
2019-05-18T04:20:40.087Z,15.74
2019-05-18T04:23:09.840Z,15.86
2019-05-18T04:25:43.557Z,16.04
2019-05-18T04:28:10.823Z,16.19
2019-05-18T04:30:40.328Z,16.27
2019-05-18T04:33:10.132Z,16.32
2019-05-18T04:35:39.858Z,16.25
2019-05-18T04:38:09.528Z,16.22
2019-05-18T04:40:39.424Z,16.24
2019-05-18T04:43:08.951Z,16.33
2019-05-18T04:45:38.614Z,16.42
2019-05-18T04:48:08.267Z,16.49
2019-05-18T04:50:38.351Z,16.62
2019-05-18T04:53:08.162Z,16.74
2019-05-18T04:55:37.902Z,16.89
2019-05-18T04:58:07.408Z,16.97
2019-05-18T05:00:37.254Z,17.03
2019-05-18T05:03:06.903Z,17.10
2019-05-18T05:05:36.652Z,17.18
2019-05-18T05:08:06.173Z,17.24
2019-05-18T05:10:35.759Z,17.25
2019-05-18T05:13:05.471Z,17.36
2019-05-18T05:15:35.064Z,17.43
2019-05-18T05:18:04.589Z,17.54
2019-05-18T05:20:34.101Z,17.64
2019-05-18T05:23:03.780Z,17.81
2019-05-18T05:25:33.509Z,17.91
2019-05-18T05:28:03.038Z,18.01
2019-05-18T05:30:32.813Z,18.11
2019-05-18T05:33:02.530Z,18.20
2019-05-18T05:35:32.293Z,18.31
2019-05-18T05:38:02.210Z,18.35
2019-05-18T05:40:31.815Z,18.33
2019-05-18T05:43:01.345Z,18.37
2019-05-18T05:45:30.785Z,18.49
2019-05-18T05:48:00.595Z,18.63
2019-05-18T05:50:36.218Z,18.71
2019-05-18T05:53:01.739Z,18.83
2019-05-18T05:55:31.450Z,18.88
2019-05-18T05:58:01.134Z,18.93
2019-05-18T06:00:31.050Z,19.02
2019-05-18T06:03:00.800Z,19.04
2019-05-18T06:05:30.695Z,19.09
2019-05-18T06:08:00.390Z,19.11
2019-05-18T06:10:29.988Z,19.19
2019-05-18T06:12:59.715Z,19.37
2019-05-18T06:15:29.221Z,19.51
2019-05-18T06:17:58.820Z,19.63
2019-05-18T06:20:28.542Z,19.67
2019-05-18T06:22:58.289Z,19.70
2019-05-18T06:25:27.985Z,19.80
2019-05-18T06:27:57.643Z,19.78
2019-05-18T06:30:27.516Z,19.86
2019-05-18T06:32:57.278Z,19.93
2019-05-18T06:35:26.726Z,20.02
2019-05-18T06:37:56.618Z,20.07
2019-05-18T06:40:26.373Z,20.15
2019-05-18T06:42:56.113Z,20.29
2019-05-18T06:45:25.546Z,20.44
2019-05-18T06:47:55.388Z,20.54
2019-05-18T06:50:30.381Z,20.61
2019-05-18T06:53:00.165Z,20.63
2019-05-18T06:55:29.932Z,20.77
2019-05-18T06:58:00.453Z,20.93
2019-05-18T07:00:30.322Z,21.09
2019-05-18T07:02:59.754Z,21.01
2019-05-18T07:05:29.329Z,21.00
2019-05-18T07:07:59.207Z,21.16
2019-05-18T07:10:28.692Z,21.31
2019-05-18T07:12:58.255Z,21.34
2019-05-18T07:15:27.969Z,21.43
2019-05-18T07:17:57.532Z,21.46
2019-05-18T07:20:27.369Z,21.35
2019-05-18T07:22:56.882Z,21.31
2019-05-18T07:25:26.309Z,21.37
2019-05-18T07:27:56.260Z,21.40
2019-05-18T07:30:26.115Z,21.49
2019-05-18T07:32:55.808Z,21.55
2019-05-18T07:35:25.245Z,21.58
2019-05-18T07:37:55.100Z,21.67
2019-05-18T07:40:24.744Z,21.87
2019-05-18T07:42:54.385Z,21.93
2019-05-18T07:45:23.956Z,22.17
2019-05-18T07:47:53.784Z,22.33
2019-05-18T07:50:23.684Z,22.51
2019-05-18T07:52:53.390Z,22.68
2019-05-18T07:55:23.110Z,22.78
2019-05-18T07:57:52.915Z,22.88
2019-05-18T08:00:22.335Z,22.92
2019-05-18T08:02:52.062Z,22.82
2019-05-18T08:05:21.997Z,22.74
2019-05-18T08:07:51.397Z,22.69
2019-05-18T08:10:47.938Z,22.66
2019-05-18T08:13:17.860Z,22.65
2019-05-18T08:18:15.880Z,22.57
2019-05-18T08:20:45.438Z,22.61
2019-05-18T08:23:15.198Z,22.79
2019-05-18T08:25:44.738Z,23.03
2019-05-18T08:28:14.285Z,23.22
2019-05-18T08:30:43.994Z,23.35
2019-05-18T08:33:13.782Z,23.47
2019-05-18T08:35:43.404Z,23.64
2019-05-18T08:38:13.217Z,23.87
2019-05-18T08:40:42.955Z,23.99
2019-05-18T08:43:12.747Z,24.08
2019-05-18T08:45:42.547Z,24.20
2019-05-18T08:48:12.456Z,24.38
2019-05-18T08:50:42.313Z,24.52
2019-05-18T08:53:12.098Z,24.66
2019-05-18T08:55:41.902Z,24.78
2019-05-18T08:58:11.696Z,24.80
2019-05-18T09:00:41.562Z,24.84
2019-05-18T09:03:11.271Z,24.96
2019-05-18T09:05:40.929Z,25.07
2019-05-18T09:08:10.808Z,25.18
2019-05-18T09:10:40.655Z,25.52
2019-05-18T09:13:10.489Z,25.80
2019-05-18T09:15:40.228Z,25.83
2019-05-18T09:18:10.015Z,26.43
2019-05-18T09:20:39.604Z,27.31
2019-05-18T09:23:09.184Z,28.41
2019-05-18T09:25:38.889Z,29.20
2019-05-18T09:28:08.530Z,30.24
2019-05-18T09:30:41.178Z,30.91
2019-05-18T09:33:09.724Z,31.69
2019-05-18T09:35:39.677Z,32.29
2019-05-18T09:38:09.408Z,33.50
2019-05-18T09:40:38.810Z,35.08
2019-05-18T09:43:08.589Z,36.45
2019-05-18T09:45:38.410Z,37.55
2019-05-18T09:48:08.035Z,38.62
2019-05-18T09:50:37.769Z,39.56
2019-05-18T09:53:07.557Z,40.14
2019-05-18T09:55:37.214Z,40.81
2019-05-18T09:58:07.336Z,41.60
2019-05-18T10:00:39.070Z,42.25
2019-05-18T10:03:08.672Z,43.07
2019-05-18T10:05:38.384Z,43.01
2019-05-18T10:08:08.238Z,41.18
2019-05-18T10:10:38.095Z,40.73
2019-05-18T10:13:07.507Z,41.54
2019-05-18T10:15:37.308Z,42.28
2019-05-18T10:18:07.190Z,42.81
2019-05-18T10:20:36.679Z,43.74
2019-05-18T10:23:13.019Z,43.84
2019-05-18T10:25:37.994Z,43.41
2019-05-18T10:28:07.882Z,43.92
2019-05-18T10:30:37.648Z,44.76
2019-05-18T10:33:07.045Z,45.55
2019-05-18T10:35:36.545Z,45.72
2019-05-18T10:38:06.111Z,43.87
2019-05-18T10:40:35.627Z,44.63
2019-05-18T10:43:05.621Z,44.96
2019-05-18T10:45:35.179Z,45.39
2019-05-18T10:48:04.894Z,45.17
2019-05-18T10:50:34.789Z,44.65
2019-05-18T10:53:04.306Z,44.89
2019-05-18T10:55:34.225Z,46.09
2019-05-18T10:58:03.994Z,46.38
2019-05-18T11:00:33.411Z,46.90
2019-05-18T11:03:03.367Z,47.33
2019-05-18T11:05:33.241Z,47.18
2019-05-18T11:08:02.683Z,47.64
2019-05-18T11:10:32.116Z,46.23
2019-05-18T11:13:01.772Z,46.55
2019-05-18T11:15:31.214Z,46.71
2019-05-18T11:18:01.121Z,46.68
2019-05-18T11:20:30.774Z,46.53
2019-05-18T11:23:00.224Z,46.37
2019-05-18T11:25:30.156Z,46.60
2019-05-18T11:28:00.005Z,46.98
2019-05-18T11:30:29.602Z,46.67
2019-05-18T11:32:59.407Z,45.82
2019-05-18T11:35:28.873Z,45.19
2019-05-18T11:37:58.690Z,45.46
2019-05-18T11:40:28.494Z,46.14
2019-05-18T11:42:58.246Z,46.60
2019-05-18T11:45:28.172Z,45.35
2019-05-18T11:47:58.043Z,43.89
2019-05-18T11:50:27.980Z,43.65
2019-05-18T11:52:57.727Z,43.95
2019-05-18T11:55:27.519Z,43.65
2019-05-18T11:57:57.112Z,42.73
2019-05-18T12:00:28.045Z,43.01
2019-05-18T12:02:57.799Z,42.94
2019-05-18T12:05:27.287Z,43.82
2019-05-18T12:07:57.086Z,44.27
2019-05-18T12:10:26.853Z,42.88
2019-05-18T12:12:56.588Z,41.27
2019-05-18T12:15:26.755Z,41.36
2019-05-18T12:17:56.558Z,41.44
2019-05-18T12:20:26.397Z,41.38
2019-05-18T12:22:56.285Z,42.37
2019-05-18T12:25:26.173Z,43.12
2019-05-18T12:27:56.089Z,41.43
2019-05-18T12:30:26.303Z,39.34
2019-05-18T12:32:56.173Z,37.79
2019-05-18T12:35:26.036Z,37.57
2019-05-18T12:37:55.450Z,37.98
2019-05-18T12:40:25.569Z,37.95
2019-05-18T12:42:55.307Z,37.32
2019-05-18T12:45:25.485Z,36.77
2019-05-18T12:47:55.285Z,37.09
2019-05-18T12:50:25.442Z,36.85
2019-05-18T12:52:55.285Z,36.80
2019-05-18T12:55:25.309Z,36.16
2019-05-18T12:57:54.676Z,35.48
2019-05-18T13:00:26.399Z,35.01
2019-05-18T13:02:55.918Z,34.88
2019-05-18T13:05:25.748Z,35.31
2019-05-18T13:07:55.143Z,36.24
2019-05-18T13:10:25.099Z,37.11
2019-05-18T13:12:54.588Z,37.18
2019-05-18T13:15:25.123Z,36.51
2019-05-18T13:17:54.930Z,35.41
2019-05-18T13:20:24.892Z,35.07
2019-05-18T13:22:54.805Z,35.28
2019-05-18T13:25:24.635Z,35.67
2019-05-18T13:27:54.625Z,35.50
2019-05-18T13:30:24.729Z,35.44
2019-05-18T13:32:54.339Z,36.09
2019-05-18T13:35:24.278Z,35.90
2019-05-18T13:37:53.798Z,35.71
2019-05-18T13:40:24.408Z,35.10
2019-05-18T13:42:54.100Z,35.56
2019-05-18T13:45:24.514Z,35.36
2019-05-18T13:47:54.272Z,35.21
2019-05-18T13:50:25.288Z,34.99
2019-05-18T13:52:55.008Z,35.12
2019-05-18T13:55:24.810Z,35.37
2019-05-18T13:57:54.503Z,36.13
2019-05-18T14:00:24.441Z,36.29
2019-05-18T14:02:54.533Z,35.97
2019-05-18T14:05:24.380Z,34.65
2019-05-18T14:07:53.786Z,33.90
2019-05-18T14:10:23.842Z,33.57
2019-05-18T14:12:53.736Z,33.27
2019-05-18T14:15:23.415Z,32.86
2019-05-18T14:17:52.827Z,32.65
2019-05-18T14:20:22.267Z,32.33
2019-05-18T14:22:52.084Z,31.98
2019-05-18T14:25:22.075Z,31.61
2019-05-18T14:27:51.903Z,31.26
2019-05-18T14:30:22.171Z,30.72
2019-05-18T14:32:51.935Z,30.01
2019-05-18T14:35:21.439Z,30.01
2019-05-18T14:37:51.219Z,29.78
2019-05-18T14:40:20.841Z,29.62
2019-05-18T14:42:50.544Z,29.38
2019-05-18T14:45:20.462Z,29.28
2019-05-18T14:47:50.166Z,29.11
2019-05-18T14:50:20.964Z,29.23
2019-05-18T14:52:50.766Z,29.24
2019-05-18T14:55:32.744Z,29.08
2019-05-18T14:57:52.200Z,29.08
2019-05-18T15:00:22.351Z,29.10
2019-05-18T15:02:52.175Z,29.09
2019-05-18T15:05:21.617Z,29.07
2019-05-18T15:07:51.150Z,29.02
2019-05-18T15:10:21.014Z,28.92
2019-05-18T15:12:50.764Z,28.72
2019-05-18T15:15:20.251Z,28.54
2019-05-18T15:17:49.676Z,28.43
2019-05-18T15:20:20.861Z,28.33
2019-05-18T15:22:50.422Z,28.26
2019-05-18T15:25:20.364Z,28.24
2019-05-18T15:27:50.161Z,28.29
2019-05-18T15:30:20.218Z,28.20
2019-05-18T15:32:50.114Z,28.22
2019-05-18T15:35:20.045Z,28.18
2019-05-18T15:37:49.722Z,28.13
2019-05-18T15:40:19.929Z,28.13
2019-05-18T15:42:49.499Z,28.12
2019-05-18T15:45:19.817Z,28.09
2019-05-18T15:47:49.555Z,27.81
2019-05-18T15:50:20.018Z,27.86
2019-05-18T15:52:49.842Z,27.87
2019-05-18T15:55:19.838Z,27.54
2019-05-18T15:57:49.623Z,27.47
2019-05-18T16:00:19.387Z,27.29
2019-05-18T16:02:49.208Z,27.21
2019-05-18T16:05:18.766Z,27.04
2019-05-18T16:07:48.539Z,26.98
2019-05-18T16:10:18.444Z,26.97
2019-05-18T16:12:47.858Z,26.95
2019-05-18T16:15:17.944Z,26.79
2019-05-18T16:17:47.640Z,26.80
2019-05-18T16:20:18.677Z,26.65
2019-05-18T16:22:48.149Z,26.60
2019-05-18T16:25:18.284Z,26.51
2019-05-18T16:27:48.114Z,26.52
2019-05-18T16:30:18.119Z,26.44
2019-05-18T16:32:47.564Z,26.38
2019-05-18T16:35:17.266Z,26.31
2019-05-18T16:37:46.682Z,26.18
2019-05-18T16:40:16.759Z,25.99
2019-05-18T16:42:46.918Z,26.00
2019-05-18T16:45:18.316Z,25.81
2019-05-18T16:47:48.148Z,25.71
2019-05-18T16:50:18.121Z,25.76
2019-05-18T16:52:47.677Z,25.47
2019-05-18T16:55:17.366Z,25.56
2019-05-18T16:57:46.949Z,25.63
2019-05-18T17:00:18.698Z,25.64
2019-05-18T17:02:48.591Z,25.55
2019-05-18T17:05:18.281Z,25.49
2019-05-18T17:07:47.833Z,25.52
2019-05-18T17:10:18.682Z,25.46
2019-05-18T17:12:48.498Z,25.31
2019-05-18T17:15:18.247Z,25.24
2019-05-18T17:17:48.147Z,25.13
2019-05-18T17:20:19.065Z,25.03
2019-05-18T17:22:48.669Z,24.89
2019-05-18T17:25:18.546Z,24.80
2019-05-18T17:27:48.073Z,24.72
2019-05-18T17:30:18.090Z,24.65
2019-05-18T17:32:47.516Z,24.50
2019-05-18T17:35:17.160Z,24.41
2019-05-18T17:37:46.687Z,24.30
2019-05-18T17:40:17.887Z,24.31
2019-05-18T17:42:47.797Z,24.06
2019-05-18T17:45:17.862Z,23.81
2019-05-18T17:47:47.727Z,23.64
2019-05-18T17:50:17.451Z,23.46
2019-05-18T17:52:47.192Z,23.31
2019-05-18T17:55:17.553Z,23.19
2019-05-18T17:57:47.270Z,23.20
2019-05-18T18:00:17.590Z,23.23
2019-05-18T18:02:48.284Z,23.28
2019-05-18T18:05:17.984Z,23.38
2019-05-18T18:07:47.846Z,23.30
2019-05-18T18:10:17.791Z,23.36
2019-05-18T18:12:47.458Z,23.33
2019-05-18T18:15:18.884Z,23.37
2019-05-18T18:17:48.424Z,23.43
2019-05-18T18:20:18.413Z,23.59
2019-05-18T18:22:47.816Z,23.57
2019-05-18T18:25:17.551Z,23.55
2019-05-18T18:27:47.383Z,23.49
2019-05-18T18:30:18.372Z,23.44
2019-05-18T18:32:48.246Z,23.45
2019-05-18T18:35:18.113Z,23.48
2019-05-18T18:37:47.517Z,23.39
2019-05-18T18:40:17.872Z,23.35
2019-05-18T18:42:47.728Z,23.34
2019-05-18T18:45:17.959Z,23.29
2019-05-18T18:47:47.884Z,23.26
2019-05-18T18:50:17.753Z,23.25
2019-05-18T18:52:47.346Z,23.18
2019-05-18T18:55:17.335Z,23.15
2019-05-18T18:57:47.110Z,23.09
2019-05-18T19:00:17.185Z,23.11
2019-05-18T19:02:46.946Z,22.96
2019-05-18T19:05:16.550Z,22.81
